createdAt,value
2023-01-18T00:00:28.212Z,-4.08
2023-01-18T00:05:30.451Z,-4.20
2023-01-18T00:10:34.159Z,-4.17
2023-01-18T00:15:37.669Z,-4.19
2023-01-18T00:20:39.713Z,-4.10
2023-01-18T00:25:43.127Z,-4.04
2023-01-18T00:30:45.215Z,-4.16
2023-01-18T00:35:55.298Z,-4.16
2023-01-18T00:40:58.663Z,-4.10
2023-01-18T00:46:00.380Z,-3.99
2023-01-18T00:51:03.184Z,-4.07
2023-01-18T00:56:08.249Z,-4.00
2023-01-18T01:01:10.993Z,-3.98
2023-01-18T01:06:14.908Z,-3.91
2023-01-18T01:11:18.372Z,-3.96
2023-01-18T01:16:21.409Z,-3.99
2023-01-18T01:21:23.462Z,-3.98
2023-01-18T01:26:27.094Z,-3.89
2023-01-18T01:31:29.253Z,-3.85
2023-01-18T01:36:31.353Z,-3.80
2023-01-18T01:41:35.523Z,-3.73
2023-01-18T01:46:43.604Z,-3.74
2023-01-18T01:51:49.351Z,-3.71
2023-01-18T01:56:57.102Z,-3.62
2023-01-18T02:01:59.626Z,-3.65
2023-01-18T02:07:01.703Z,-3.59
2023-01-18T02:12:05.637Z,-3.64
2023-01-18T02:17:19.656Z,-3.50
2023-01-18T02:22:42.249Z,-3.54
2023-01-18T02:27:51.603Z,-3.44
2023-01-18T02:33:04.540Z,-3.37
2023-01-18T02:38:10.566Z,-3.44
2023-01-18T02:43:16.473Z,-3.45
2023-01-18T02:48:22.042Z,-3.41
2023-01-18T02:53:24.879Z,-3.32
2023-01-18T02:58:31.757Z,-3.35
2023-01-18T03:03:36.109Z,-3.25
2023-01-18T03:08:43.188Z,-3.11
2023-01-18T03:14:01.312Z,-3.10
2023-01-18T03:19:11.415Z,-3.11
2023-01-18T03:24:16.659Z,-3.09
2023-01-18T03:29:21.196Z,-3.02
2023-01-18T03:34:30.136Z,-3.13
2023-01-18T03:39:37.871Z,-2.97
2023-01-18T03:44:45.435Z,-2.93
2023-01-18T03:49:49.311Z,-2.95
2023-01-18T03:55:05.654Z,-2.94
2023-01-18T04:00:09.868Z,-2.90
2023-01-18T04:05:13.300Z,-2.87
2023-01-18T04:10:15.310Z,-2.81
2023-01-18T04:15:17.345Z,-2.80
2023-01-18T04:20:20.840Z,-2.72
2023-01-18T04:25:23.026Z,-2.66
2023-01-18T04:30:25.085Z,-2.71
2023-01-18T04:35:28.404Z,-2.64
2023-01-18T04:40:30.463Z,-2.65
2023-01-18T04:45:32.647Z,-2.55
2023-01-18T04:50:44.883Z,-2.53
2023-01-18T04:55:48.084Z,-2.54
2023-01-18T05:00:49.894Z,-2.50
2023-01-18T05:05:55.557Z,-2.41
2023-01-18T05:11:04.442Z,-2.29
2023-01-18T05:16:08.735Z,-2.23
2023-01-18T05:21:13.632Z,-2.17
2023-01-18T05:26:20.403Z,-2.14
2023-01-18T05:31:26.053Z,-2.05
2023-01-18T05:36:29.922Z,-1.97
2023-01-18T05:41:31.668Z,-1.83
2023-01-18T05:46:33.685Z,-1.53
2023-01-18T05:51:37.558Z,-1.35
2023-01-18T05:56:39.476Z,-1.27
2023-01-18T06:01:41.795Z,-1.08
2023-01-18T06:06:44.897Z,-1.17
2023-01-18T06:11:47.012Z,-1.14
2023-01-18T06:16:49.241Z,-1.03
2023-01-18T06:21:52.811Z,-1.01
2023-01-18T06:26:54.829Z,-1.02
2023-01-18T06:31:56.574Z,-1.06
2023-01-18T06:37:03.850Z,-1.00
2023-01-18T06:42:06.554Z,-1.01
2023-01-18T06:47:08.818Z,-0.90
2023-01-18T06:52:12.272Z,-0.89
2023-01-18T06:57:14.255Z,-0.89
2023-01-18T07:02:16.031Z,-0.86
2023-01-18T07:07:19.100Z,-0.83
2023-01-18T07:12:21.690Z,-0.69
2023-01-18T07:17:23.827Z,-0.46
2023-01-18T07:22:27.555Z,-0.25
2023-01-18T07:27:29.597Z,-0.14
2023-01-18T07:32:31.697Z,-0.10
2023-01-18T07:37:35.675Z,-0.10
2023-01-18T07:42:38.197Z,0.21
2023-01-18T07:47:41.043Z,0.34
2023-01-18T07:52:44.769Z,0.43
2023-01-18T07:57:47.068Z,0.47
2023-01-18T08:02:50.753Z,0.32
2023-01-18T08:07:54.318Z,0.21
2023-01-18T08:12:56.727Z,0.27
2023-01-18T08:18:02.208Z,0.28
2023-01-18T08:23:05.760Z,0.46
2023-01-18T08:28:08.006Z,0.54
2023-01-18T08:33:10.568Z,0.70
2023-01-18T08:38:16.442Z,0.75
2023-01-18T08:43:18.590Z,0.80
2023-01-18T08:48:20.715Z,0.96
2023-01-18T08:53:24.099Z,1.11
2023-01-18T08:58:26.751Z,1.14
2023-01-18T09:03:28.903Z,1.04
2023-01-18T09:08:32.315Z,1.03
2023-01-18T09:13:34.669Z,1.10
2023-01-18T09:18:37.949Z,1.27
2023-01-18T09:23:41.112Z,1.16
2023-01-18T09:28:43.452Z,1.17
2023-01-18T09:33:52.741Z,1.23
2023-01-18T09:38:57.293Z,1.35
2023-01-18T09:44:02.871Z,1.46
2023-01-18T09:49:07.888Z,1.63
2023-01-18T09:54:23.951Z,1.98
2023-01-18T09:59:33.715Z,2.11
2023-01-18T10:04:42.850Z,2.02
2023-01-18T10:09:48.571Z,2.05
2023-01-18T10:14:57.777Z,2.11
2023-01-18T10:20:00.340Z,2.19
2023-01-18T10:25:14.350Z,2.07
2023-01-18T10:30:32.659Z,2.27
2023-01-18T10:35:39.366Z,2.36
2023-01-18T10:40:47.175Z,2.58
2023-01-18T10:45:48.923Z,2.63
2023-01-18T10:50:53.544Z,2.41
2023-01-18T10:56:01.693Z,2.44
2023-01-18T11:01:04.538Z,2.38
2023-01-18T11:06:08.122Z,2.27
2023-01-18T11:11:18.859Z,2.19
2023-01-18T11:16:22.562Z,2.20
2023-01-18T11:21:25.713Z,2.39
2023-01-18T11:26:28.870Z,2.59
2023-01-18T11:31:42.554Z,2.46
2023-01-18T11:36:45.379Z,2.39
2023-01-18T11:41:48.866Z,2.40
2023-01-18T11:46:55.069Z,2.32
2023-01-18T11:52:00.627Z,2.41
2023-01-18T11:57:04.557Z,2.31
2023-01-18T12:02:31.286Z,2.27
2023-01-18T12:07:45.854Z,2.12
2023-01-18T12:13:05.766Z,2.07
2023-01-18T12:18:25.084Z,2.00
2023-01-18T12:23:45.283Z,2.31
2023-01-18T12:29:04.687Z,2.18
2023-01-18T12:34:14.297Z,2.14
2023-01-18T12:39:28.867Z,2.17
2023-01-18T12:44:53.237Z,2.17
2023-01-18T12:49:58.725Z,2.03
2023-01-18T12:55:05.825Z,2.31
2023-01-18T13:00:16.558Z,2.30
2023-01-18T13:05:23.532Z,2.20
2023-01-18T13:10:28.523Z,2.38
2023-01-18T13:15:42.921Z,2.21
2023-01-18T13:20:57.426Z,1.99
2023-01-18T13:26:10.339Z,2.33
2023-01-18T13:31:14.243Z,2.43
2023-01-18T13:36:19.772Z,2.40
2023-01-18T13:41:24.970Z,2.18
2023-01-18T13:46:30.594Z,2.11
2023-01-18T13:51:56.698Z,2.10
2023-01-18T13:57:16.737Z,2.10
2023-01-18T14:02:26.797Z,2.00
2023-01-18T14:07:30.278Z,2.14
2023-01-18T14:12:49.660Z,1.99
2023-01-18T14:17:58.496Z,1.99
2023-01-18T14:23:13.247Z,2.03
2023-01-18T14:28:20.919Z,1.86
2023-01-18T14:33:30.400Z,1.78
2023-01-18T14:38:32.344Z,1.71
2023-01-18T14:43:37.405Z,1.73
2023-01-18T14:48:47.165Z,1.68
2023-01-18T14:53:52.773Z,1.67
2023-01-18T14:58:57.517Z,1.72
2023-01-18T15:04:02.510Z,1.72
2023-01-18T15:09:06.757Z,1.72
2023-01-18T15:14:13.039Z,1.74
2023-01-18T15:19:20.657Z,1.81
2023-01-18T15:24:24.027Z,1.77
2023-01-18T15:29:30.709Z,1.82
2023-01-18T15:34:36.755Z,1.71
2023-01-18T15:39:48.236Z,1.83
2023-01-18T15:44:53.856Z,1.75
2023-01-18T15:50:00.534Z,1.65
2023-01-18T15:55:07.051Z,1.57
2023-01-18T16:00:26.950Z,1.57
2023-01-18T16:05:30.743Z,1.53
2023-01-18T16:10:33.154Z,1.53
2023-01-18T16:15:35.321Z,1.33
2023-01-18T16:20:39.152Z,1.33
2023-01-18T16:25:41.269Z,1.38
2023-01-18T16:30:49.650Z,1.17
2023-01-18T16:35:53.106Z,1.23
2023-01-18T16:40:54.919Z,1.34
2023-01-18T16:45:57.664Z,1.10
2023-01-18T16:51:01.348Z,1.04
2023-01-18T16:56:03.886Z,1.07
2023-01-18T17:01:08.188Z,0.89
2023-01-18T17:06:16.525Z,0.76
2023-01-18T17:11:18.474Z,0.66
2023-01-18T17:16:20.828Z,0.65
2023-01-18T17:21:23.981Z,0.54
2023-01-18T17:26:25.902Z,0.42
2023-01-18T17:31:27.892Z,0.32
2023-01-18T17:36:31.363Z,0.36
2023-01-18T17:41:33.641Z,0.35
2023-01-18T17:46:36.504Z,0.29
2023-01-18T17:51:39.973Z,0.16
2023-01-18T17:56:41.870Z,0.02
2023-01-18T18:01:43.744Z,-0.16
2023-01-18T18:06:54.137Z,-0.25
2023-01-18T18:11:57.228Z,-0.40
2023-01-18T18:16:58.942Z,-0.49
2023-01-18T18:22:02.470Z,-0.67
2023-01-18T18:27:04.469Z,-0.70
2023-01-18T18:32:07.774Z,-0.73
2023-01-18T18:37:10.958Z,-0.03
2023-01-18T18:42:13.037Z,0.46
2023-01-18T18:47:14.871Z,0.25
2023-01-18T18:52:18.456Z,0.24
2023-01-18T18:57:20.565Z,0.20
2023-01-18T19:02:22.643Z,0.16
2023-01-18T19:07:26.296Z,0.28
2023-01-18T19:12:28.639Z,0.27
2023-01-18T19:17:32.844Z,0.28
2023-01-18T19:22:38.181Z,0.04
2023-01-18T19:27:40.704Z,-0.14
2023-01-18T19:32:42.944Z,-0.28
2023-01-18T19:37:47.920Z,-0.47
2023-01-18T19:42:50.634Z,-0.37
2023-01-18T19:47:53.675Z,-0.50
2023-01-18T19:52:57.182Z,-0.65
2023-01-18T19:58:00.969Z,-0.74
2023-01-18T20:03:04.838Z,-0.86
2023-01-18T20:08:09.164Z,-0.98
2023-01-18T20:13:11.321Z,-1.17
2023-01-18T20:18:13.569Z,-1.30
2023-01-18T20:23:17.174Z,-1.47
2023-01-18T20:28:19.245Z,-1.58
2023-01-18T20:33:21.349Z,-1.71
2023-01-18T20:38:26.181Z,-1.80
2023-01-18T20:43:28.276Z,-1.88
2023-01-18T20:48:30.118Z,-1.88
2023-01-18T20:53:34.042Z,-2.20
2023-01-18T20:58:36.651Z,-2.39
2023-01-18T21:03:38.443Z,-2.43
2023-01-18T21:08:41.957Z,-2.47
2023-01-18T21:13:43.944Z,-2.56
2023-01-18T21:18:45.797Z,-2.78
2023-01-18T21:23:48.981Z,-2.77
2023-01-18T21:28:51.127Z,-2.87
2023-01-18T21:33:54.244Z,-3.03
2023-01-18T21:38:57.387Z,-3.20
2023-01-18T21:43:59.618Z,-3.29
2023-01-18T21:49:02.512Z,-3.23
2023-01-18T21:54:06.162Z,-3.18
2023-01-18T21:59:08.464Z,-3.39
2023-01-18T22:04:12.314Z,-3.22
2023-01-18T22:09:15.864Z,-3.13
2023-01-18T22:14:17.917Z,-3.14
2023-01-18T22:19:20.063Z,-3.25
2023-01-18T22:24:23.550Z,-3.30
2023-01-18T22:29:25.284Z,-3.27
2023-01-18T22:34:27.684Z,-3.30
2023-01-18T22:39:31.027Z,-3.43
2023-01-18T22:44:33.277Z,-3.66
2023-01-18T22:49:35.739Z,-3.46
2023-01-18T22:54:39.454Z,-3.38
2023-01-18T22:59:41.216Z,-3.50
2023-01-18T23:04:43.393Z,-3.60
2023-01-18T23:09:46.822Z,-3.66
2023-01-18T23:14:49.135Z,-3.74
2023-01-18T23:19:51.155Z,-3.68
2023-01-18T23:24:54.580Z,-3.86
2023-01-18T23:29:57.093Z,-3.89
2023-01-18T23:35:04.914Z,-3.94
2023-01-18T23:40:12.552Z,-4.10
2023-01-18T23:45:14.894Z,-4.25
2023-01-18T23:50:29.168Z,-4.36
2023-01-18T23:55:32.390Z,-4.32
